Ivinghoe, United Kingdom
Current Conditions -  °F | °C
As of 9:20 AM on Saturday 25 Oct 2014 (Local Time) from EGGW Reporting Station
Broken Clouds Broken Clouds  
Wind Chill: 44°   Ceiling: 4100
Heat Index: 46°   Visibility: 6mi
Dew Point: 46°   Wind: 6mph
Humidity: 100%   Direction: 210°SSW
Pressure: 30.03"   Gusts: NA
Location:  51.84°N, 0.63°W
Report Text: EGGW 250820Z 21005KT 9999 BKN041 08/08 Q1017
Loading
Personal Weather Stations






























Interactive Weather Map
Tropical Storm Tracking
New forecast layout! Learn more

10-Day Weather Forecast

Advertisements
Track Severe Weather on mobile